createdAt,value
2017-12-25T00:00:44.714Z,8.62
2017-12-25T00:01:54.495Z,8.57
2017-12-25T00:03:04.280Z,8.52
2017-12-25T00:04:14.117Z,8.62
2017-12-25T00:05:24.174Z,8.67
2017-12-25T00:06:34.220Z,8.47
2017-12-25T00:07:44.013Z,8.46
2017-12-25T00:08:53.812Z,8.6
2017-12-25T00:10:03.656Z,8.53
2017-12-25T00:11:13.763Z,8.58
2017-12-25T00:12:23.832Z,8.61
2017-12-25T00:13:33.612Z,8.61
2017-12-25T00:14:43.672Z,8.64
2017-12-25T00:15:53.714Z,8.57
2017-12-25T00:17:03.505Z,8.58
2017-12-25T00:18:13.306Z,8.58
2017-12-25T00:19:23.351Z,8.6
2017-12-25T00:20:33.386Z,8.58
2017-12-25T00:21:43.504Z,8.43
2017-12-25T00:22:53.312Z,8.54
2017-12-25T00:24:03.384Z,8.54
2017-12-25T00:25:13.428Z,8.44
2017-12-25T00:26:23.484Z,8.49
2017-12-25T00:27:33.555Z,8.54
2017-12-25T00:28:43.603Z,8.43
2017-12-25T00:29:53.656Z,8.42
2017-12-25T00:31:03.702Z,8.4
2017-12-25T00:32:13.752Z,8.42
2017-12-25T00:33:23.590Z,8.43
2017-12-25T00:34:33.628Z,8.39
2017-12-25T00:35:43.418Z,8.31
2017-12-25T00:36:53.486Z,8.32
2017-12-25T00:38:03.557Z,8.24
2017-12-25T00:39:13.605Z,8.21
2017-12-25T00:40:23.403Z,8.34
2017-12-25T00:41:33.452Z,8.34
2017-12-25T00:42:42.979Z,8.29
2017-12-25T00:43:52.769Z,8.26
2017-12-25T00:45:02.824Z,8.19
2017-12-25T00:46:12.882Z,8.17
2017-12-25T00:47:22.678Z,8.22
2017-12-25T00:48:32.712Z,8.16
2017-12-25T00:49:42.504Z,8.04
2017-12-25T00:50:52.281Z,8.17
2017-12-25T00:52:02.065Z,8.1
2017-12-25T00:53:12.127Z,8.13
2017-12-25T00:54:22.165Z,8.14
2017-12-25T00:55:32.224Z,8.13
2017-12-25T00:56:42.278Z,8.25
2017-12-25T00:57:52.339Z,8.16
2017-12-25T00:59:02.397Z,8.14
2017-12-25T01:00:12.457Z,8.26
2017-12-25T01:01:21.990Z,8.19
2017-12-25T01:02:31.775Z,8.14
2017-12-25T01:03:41.827Z,8.17
2017-12-25T01:04:51.906Z,8.19
2017-12-25T01:06:01.950Z,8.16
2017-12-25T01:07:11.731Z,8.17
2017-12-25T01:08:21.784Z,8.11
2017-12-25T01:09:31.824Z,8.14
2017-12-25T01:10:41.872Z,8.17
2017-12-25T01:11:51.920Z,8.16
2017-12-25T01:13:01.971Z,8.17
2017-12-25T01:14:12.015Z,8.21
2017-12-25T01:15:22.117Z,8.25
2017-12-25T01:16:32.167Z,8.17
2017-12-25T01:17:41.981Z,8.29
2017-12-25T01:18:52.042Z,8.22
2017-12-25T01:20:02.175Z,8.11
2017-12-25T01:21:11.983Z,8.19
2017-12-25T01:22:22.055Z,8.16
2017-12-25T01:23:32.101Z,8.1
2017-12-25T01:24:41.616Z,8.14
2017-12-25T01:25:51.405Z,8.11
2017-12-25T01:27:01.466Z,8.13
2017-12-25T01:28:11.518Z,8.11
2017-12-25T01:29:21.580Z,8.07
2017-12-25T01:30:31.387Z,8.11
2017-12-25T01:31:41.439Z,7.99
2017-12-25T01:32:51.490Z,8.09
2017-12-25T01:34:01.292Z,8.04
2017-12-25T01:35:11.354Z,7.99
2017-12-25T01:36:21.151Z,8.03
2017-12-25T01:37:30.947Z,7.98
2017-12-25T01:38:40.986Z,8.01
2017-12-25T01:39:50.526Z,7.93
2017-12-25T01:41:00.332Z,7.89
2017-12-25T01:42:10.114Z,8.01
2017-12-25T01:43:19.693Z,7.99
2017-12-25T01:44:29.742Z,7.91
2017-12-25T01:45:39.777Z,7.96
2017-12-25T01:46:49.821Z,7.93
2017-12-25T01:47:59.870Z,7.93
2017-12-25T01:49:09.653Z,7.89
2017-12-25T01:50:19.711Z,7.92
2017-12-25T01:51:29.758Z,7.91
2017-12-25T01:52:39.820Z,7.91
2017-12-25T01:53:49.844Z,7.89
2017-12-25T01:54:59.900Z,7.95
2017-12-25T01:56:10.646Z,7.93
2017-12-25T01:57:20.700Z,7.91
2017-12-25T01:58:30.755Z,7.89
2017-12-25T01:59:40.541Z,7.89
2017-12-25T02:00:50.345Z,7.89
2017-12-25T02:02:00.404Z,7.91
2017-12-25T02:03:10.445Z,7.91
2017-12-25T02:04:20.497Z,7.93
2017-12-25T02:05:30.275Z,7.92
2017-12-25T02:06:40.326Z,7.89
2017-12-25T02:07:50.124Z,7.83
2017-12-25T02:09:00.162Z,7.86
2017-12-25T02:10:10.213Z,7.93
2017-12-25T02:11:20.268Z,7.85
2017-12-25T02:12:30.324Z,7.83
2017-12-25T02:13:40.367Z,7.85
2017-12-25T02:14:49.921Z,7.88
2017-12-25T02:15:59.972Z,7.92
2017-12-25T02:17:09.755Z,7.82
2017-12-25T02:18:19.813Z,7.83
2017-12-25T02:19:29.604Z,7.85
2017-12-25T02:20:39.645Z,7.91
2017-12-25T02:21:49.427Z,7.82
2017-12-25T02:22:59.483Z,7.8
2017-12-25T02:24:09.315Z,7.91
2017-12-25T02:25:19.114Z,7.8
2017-12-25T02:26:29.168Z,7.88
2017-12-25T02:27:38.720Z,7.88
2017-12-25T02:28:48.500Z,7.8
2017-12-25T02:29:58.556Z,7.78
2017-12-25T02:31:08.613Z,7.73
2017-12-25T02:32:18.451Z,7.74
2017-12-25T02:33:28.484Z,7.7
2017-12-25T02:34:38.279Z,7.64
2017-12-25T02:35:48.092Z,7.71
2017-12-25T02:36:58.172Z,7.7
2017-12-25T02:38:08.309Z,7.63
2017-12-25T02:39:18.369Z,7.61
2017-12-25T02:40:28.474Z,7.56
2017-12-25T02:41:38.530Z,7.67
2017-12-25T02:42:48.591Z,7.59
2017-12-25T02:43:58.639Z,7.7
2017-12-25T02:45:08.454Z,7.56
2017-12-25T02:46:18.236Z,7.54
2017-12-25T02:47:28.350Z,7.55
2017-12-25T02:48:38.756Z,7.56
2017-12-25T02:49:48.840Z,7.51
2017-12-25T02:50:58.904Z,7.47
2017-12-25T02:52:08.705Z,7.45
2017-12-25T02:53:18.772Z,7.47
2017-12-25T02:54:28.831Z,7.52
2017-12-25T02:55:38.988Z,7.51
2017-12-25T02:56:49.045Z,7.45
2017-12-25T02:57:58.569Z,7.36
2017-12-25T02:59:08.647Z,7.4
2017-12-25T03:00:18.433Z,7.4
2017-12-25T03:01:28.479Z,7.31
2017-12-25T03:02:38.534Z,7.34
2017-12-25T03:34:17.819Z,3.89
2017-12-25T03:35:27.872Z,3.9
2017-12-25T03:36:37.916Z,4
2017-12-25T03:37:47.944Z,4.11
2017-12-25T03:38:57.988Z,4.17
2017-12-25T03:40:08.032Z,4.21
2017-12-25T03:41:18.071Z,4.44
2017-12-25T03:42:27.622Z,4.46
2017-12-25T03:43:37.706Z,4.65
2017-12-25T03:44:47.756Z,4.75
2017-12-25T03:45:57.800Z,4.87
2017-12-25T03:47:07.839Z,5.05
2017-12-25T03:48:17.638Z,5.13
2017-12-25T03:49:27.418Z,5.31
2017-12-25T03:50:37.494Z,5.39
2017-12-25T03:51:47.540Z,5.55
2017-12-25T03:52:57.354Z,5.64
2017-12-25T03:54:07.408Z,5.73
2017-12-25T03:55:17.192Z,5.8
2017-12-25T03:56:26.983Z,5.87
2017-12-25T03:57:36.779Z,5.99
2017-12-25T03:58:46.835Z,6
2017-12-25T03:59:56.878Z,6.14
2017-12-25T04:01:06.670Z,6.2
2017-12-25T04:02:16.710Z,6.26
2017-12-25T04:03:26.758Z,6.31
2017-12-25T04:04:36.796Z,6.34
2017-12-25T04:05:46.583Z,6.43
2017-12-25T04:06:56.385Z,6.36
2017-12-25T04:08:06.482Z,6.47
2017-12-25T04:09:16.270Z,6.51
2017-12-25T04:10:26.320Z,6.43
2017-12-25T04:11:36.376Z,6.52
2017-12-25T04:12:46.430Z,6.49
2017-12-25T04:13:56.484Z,6.54
2017-12-25T04:15:06.582Z,6.6
2017-12-25T04:16:16.376Z,6.55
2017-12-25T04:17:25.900Z,6.6
2017-12-25T04:18:35.705Z,6.6
2017-12-25T04:19:45.744Z,6.6
2017-12-25T04:20:55.853Z,6.52
2017-12-25T04:22:05.895Z,6.54
2017-12-25T04:23:15.941Z,6.57
2017-12-25T04:24:25.994Z,6.54
2017-12-25T04:25:36.028Z,6.61
2017-12-25T04:26:46.081Z,6.58
2017-12-25T04:27:55.864Z,6.52
2017-12-25T04:29:05.656Z,6.54
2017-12-25T04:30:15.458Z,6.49
2017-12-25T04:31:25.510Z,6.52
2017-12-25T04:32:35.304Z,6.51
2017-12-25T04:33:45.357Z,6.44
2017-12-25T04:34:55.411Z,6.47
2017-12-25T04:36:05.472Z,6.44
2017-12-25T04:37:14.996Z,6.47
2017-12-25T04:38:25.040Z,6.43
2017-12-25T04:39:35.092Z,6.44
2017-12-25T04:40:45.132Z,6.42
2017-12-25T04:41:54.917Z,6.47
2017-12-25T04:43:04.990Z,6.44
2017-12-25T04:44:15.078Z,6.49
2017-12-25T04:45:25.142Z,6.47
2017-12-25T04:46:35.182Z,6.43
2017-12-25T04:47:45.230Z,6.6
2017-12-25T04:48:55.061Z,6.54
2017-12-25T04:50:05.113Z,6.52
2017-12-25T04:51:14.906Z,6.55
2017-12-25T04:52:24.702Z,6.54
2017-12-25T04:53:34.755Z,6.54
2017-12-25T04:54:44.814Z,6.54
2017-12-25T04:55:54.880Z,6.58
2017-12-25T04:57:04.674Z,6.58
2017-12-25T04:58:14.730Z,6.6
2017-12-25T04:59:24.517Z,6.52
2017-12-25T05:00:34.558Z,6.54
2017-12-25T05:01:44.616Z,6.55
2017-12-25T05:02:54.674Z,6.52
2017-12-25T05:04:04.483Z,6.54
2017-12-25T05:05:14.267Z,6.51
2017-12-25T05:06:24.341Z,6.51
2017-12-25T05:07:33.880Z,6.42
2017-12-25T05:08:43.934Z,6.49
2017-12-25T05:09:53.991Z,6.47
2017-12-25T05:11:04.033Z,6.43
2017-12-25T05:12:14.101Z,6.46
2017-12-25T05:13:23.886Z,6.46
2017-12-25T05:14:33.937Z,6.49
2017-12-25T05:15:44.003Z,6.52
2017-12-25T05:16:53.817Z,6.44
2017-12-25T05:18:03.876Z,6.46
2017-12-25T05:19:13.926Z,6.39
2017-12-25T05:20:23.718Z,6.4
2017-12-25T05:21:33.775Z,6.34
2017-12-25T05:22:43.570Z,6.36
2017-12-25T05:23:53.619Z,6.33
2017-12-25T05:25:03.726Z,6.29
2017-12-25T05:26:13.793Z,6.4
2017-12-25T05:27:23.840Z,6.4
2017-12-25T05:28:33.871Z,6.42
2017-12-25T05:29:43.679Z,6.37
2017-12-25T05:30:53.456Z,6.34
2017-12-25T05:32:03.252Z,6.37
2017-12-25T05:33:13.264Z,6.34
2017-12-25T05:34:23.036Z,6.42
2017-12-25T05:35:33.081Z,6.37
2017-12-25T05:36:42.868Z,6.29
2017-12-25T05:37:52.932Z,6.37
2017-12-25T05:39:02.722Z,6.34
2017-12-25T05:40:12.773Z,6.29
2017-12-25T05:41:22.605Z,6.33
2017-12-25T05:42:32.674Z,6.43
2017-12-25T05:43:42.729Z,6.37
2017-12-25T05:44:52.771Z,6.33
2017-12-25T05:46:02.815Z,6.29
2017-12-25T05:47:12.618Z,6.28
2017-12-25T05:48:22.729Z,6.33
2017-12-25T05:49:32.792Z,6.34
2017-12-25T05:50:42.591Z,6.24
2017-12-25T05:51:52.647Z,6.33
2017-12-25T05:53:02.761Z,6.31
2017-12-25T05:54:12.600Z,6.28
2017-12-25T05:55:22.650Z,6.33
2017-12-25T05:56:32.694Z,6.33
2017-12-25T05:57:42.749Z,6.28
2017-12-25T05:58:52.799Z,6.26
2017-12-25T06:00:02.879Z,6.25
2017-12-25T06:01:12.676Z,6.33
2017-12-25T06:02:22.731Z,6.34
2017-12-25T06:03:32.788Z,6.34
2017-12-25T06:04:42.577Z,6.29
2017-12-25T06:05:52.622Z,6.2
2017-12-25T06:07:02.688Z,6.21
2017-12-25T06:08:12.744Z,6.15
2017-12-25T06:09:22.528Z,6.15
2017-12-25T06:10:32.583Z,6.17
2017-12-25T06:11:42.372Z,6.13
2017-12-25T06:12:52.423Z,6.15
2017-12-25T06:14:02.485Z,6.09
2017-12-25T06:15:12.011Z,6.09
2017-12-25T06:16:22.067Z,6.13
2017-12-25T06:17:32.174Z,6.06
2017-12-25T06:18:42.222Z,6.17
2017-12-25T06:19:52.268Z,5.99
2017-12-25T06:21:02.314Z,6.15
2017-12-25T06:22:12.377Z,6.09
2017-12-25T06:23:22.447Z,6.07
2017-12-25T06:24:32.245Z,6.13
2017-12-25T06:25:42.285Z,6.1
2017-12-25T06:26:52.070Z,6.07
2017-12-25T06:28:02.134Z,6.13
2017-12-25T06:29:11.911Z,6.14
2017-12-25T06:30:21.689Z,6.18
2017-12-25T06:31:31.731Z,6.1
2017-12-25T06:32:41.830Z,6.14
2017-12-25T06:33:51.325Z,6.14
2017-12-25T06:35:01.377Z,6.17
2017-12-25T06:36:10.917Z,6.09
2017-12-25T06:37:20.996Z,6.09
2017-12-25T06:38:31.057Z,6.15
2017-12-25T06:39:41.114Z,6.14
2017-12-25T06:40:51.175Z,6.2
2017-12-25T06:42:01.215Z,6.25
2017-12-25T06:43:11.260Z,6.14
2017-12-25T06:44:21.041Z,6.14
2017-12-25T06:45:31.099Z,6.25
2017-12-25T06:46:41.200Z,6.24
2017-12-25T06:47:51.324Z,6.2
2017-12-25T06:49:01.373Z,6.24
2017-12-25T06:50:11.421Z,6.28
2017-12-25T06:51:21.214Z,6.26
2017-12-25T06:52:31.272Z,6.31
2017-12-25T06:53:41.319Z,6.29
2017-12-25T06:54:51.376Z,6.26
2017-12-25T06:56:00.898Z,6.33
2017-12-25T06:57:10.954Z,6.29
2017-12-25T06:58:20.800Z,6.36
2017-12-25T06:59:30.902Z,6.37
2017-12-25T07:00:40.705Z,6.49
2017-12-25T07:01:50.739Z,6.52
2017-12-25T07:03:00.522Z,6.36
2017-12-25T07:04:10.051Z,6.47
2017-12-25T07:05:19.837Z,6.34
2017-12-25T07:06:29.898Z,6.34
2017-12-25T07:07:39.950Z,6.34
2017-12-25T07:08:49.748Z,6.37
2017-12-25T07:09:59.849Z,6.42
2017-12-25T07:11:09.639Z,6.51
2017-12-25T07:12:19.502Z,6.42
2017-12-25T07:13:29.304Z,6.51
2017-12-25T07:14:39.350Z,6.44
2017-12-25T07:15:49.393Z,6.47
2017-12-25T07:16:59.869Z,6.58
2017-12-25T07:18:09.669Z,6.55
2017-12-25T07:19:19.723Z,6.52
2017-12-25T07:20:29.524Z,6.65
2017-12-25T07:21:39.627Z,6.76
2017-12-25T07:22:49.678Z,6.68
2017-12-25T07:23:59.726Z,6.8
2017-12-25T07:25:09.882Z,6.82
2017-12-25T07:26:19.939Z,6.79
2017-12-25T07:27:29.989Z,6.88
2017-12-25T07:28:39.777Z,7
2017-12-25T07:29:49.852Z,6.98
2017-12-25T07:30:59.942Z,7.16
2017-12-25T07:32:09.733Z,7.13
2017-12-25T07:33:19.836Z,7.23
2017-12-25T07:34:29.885Z,7.23
2017-12-25T07:35:39.948Z,7.23
2017-12-25T07:36:50.021Z,7.21
2017-12-25T07:37:59.806Z,7.37
2017-12-25T07:39:09.338Z,7.37
2017-12-25T07:40:19.390Z,7.36
2017-12-25T07:41:29.451Z,7.45
2017-12-25T07:42:39.504Z,7.48
2017-12-25T07:43:49.308Z,7.52
2017-12-25T07:44:59.356Z,7.59
2017-12-25T07:46:09.147Z,7.56
2017-12-25T07:47:18.930Z,7.54
2017-12-25T07:48:28.735Z,7.48
2017-12-25T07:49:38.778Z,7.54
2017-12-25T07:50:48.846Z,7.54
2017-12-25T07:51:58.907Z,7.47
2017-12-25T07:53:08.700Z,7.55
2017-12-25T07:54:18.746Z,7.48
2017-12-25T07:55:28.800Z,7.58
2017-12-25T07:56:38.334Z,7.48
2017-12-25T07:57:48.390Z,7.52
2017-12-25T07:58:58.460Z,7.52
2017-12-25T08:00:08.517Z,7.52
2017-12-25T08:01:18.576Z,7.59
2017-12-25T08:02:28.360Z,7.63
2017-12-25T08:03:38.470Z,7.64
2017-12-25T08:04:48.256Z,7.71
2017-12-25T08:05:58.044Z,7.83
2017-12-25T08:07:07.836Z,7.82
2017-12-25T08:08:17.641Z,7.82
2017-12-25T08:09:27.502Z,7.89
2017-12-25T08:10:37.571Z,7.93
2017-12-25T08:11:47.636Z,8.04
2017-12-25T08:12:57.944Z,8.11
2017-12-25T08:14:07.769Z,8.14
2017-12-25T08:15:17.813Z,8.25
2017-12-25T08:16:27.864Z,8.35
2017-12-25T08:17:37.931Z,8.36
2017-12-25T08:18:47.972Z,8.44
2017-12-25T08:19:58.013Z,8.44
2017-12-25T08:21:07.799Z,8.57
2017-12-25T08:22:17.868Z,8.53
2017-12-25T08:23:27.679Z,8.69
2017-12-25T08:24:37.777Z,8.72
2017-12-25T08:25:47.843Z,8.8
2017-12-25T08:26:57.998Z,8.76
2017-12-25T08:28:07.808Z,8.82
2017-12-25T08:29:17.344Z,8.86
2017-12-25T08:30:27.158Z,8.9
2017-12-25T08:31:37.221Z,8.9
2017-12-25T08:32:47.081Z,9.03
2017-12-25T08:33:56.876Z,9.16
2017-12-25T08:35:06.952Z,9.16
2017-12-25T08:36:17.018Z,9.19
2017-12-25T08:37:26.838Z,9.2
2017-12-25T08:38:36.941Z,9.35
2017-12-25T08:39:46.745Z,9.35
2017-12-25T08:40:56.802Z,9.38
2017-12-25T08:42:06.892Z,9.44
2017-12-25T08:43:16.970Z,9.41
2017-12-25T08:44:27.106Z,9.47
2017-12-25T08:45:36.922Z,9.53
2017-12-25T08:46:46.980Z,9.64
2017-12-25T08:47:57.090Z,9.57
2017-12-25T08:49:07.153Z,9.7
2017-12-25T08:50:17.229Z,9.77
2017-12-25T08:51:27.032Z,9.85
2017-12-25T08:52:36.827Z,9.89
2017-12-25T08:53:46.898Z,9.96
2017-12-25T08:54:56.957Z,10.08
2017-12-25T08:56:06.760Z,10.13
2017-12-25T08:57:16.795Z,10.1
2017-12-25T08:58:26.880Z,10.14
2017-12-25T08:59:36.938Z,10.28
2017-12-25T09:00:47.010Z,10.28
2017-12-25T09:01:57.093Z,10.38
2017-12-25T09:03:07.150Z,10.47
2017-12-25T09:04:16.943Z,10.54
2017-12-25T09:05:26.736Z,10.57
2017-12-25T09:06:36.791Z,10.65
2017-12-25T09:07:46.576Z,10.73
2017-12-25T09:08:56.625Z,10.76
2017-12-25T09:10:06.417Z,10.8
2017-12-25T09:11:16.466Z,10.84
2017-12-25T09:12:26.532Z,10.87
2017-12-25T09:13:36.336Z,10.98
2017-12-25T09:14:46.135Z,10.98
2017-12-25T09:15:56.203Z,10.98
2017-12-25T09:17:06.268Z,11.06
2017-12-25T09:18:16.061Z,11.16
2017-12-25T09:19:26.119Z,11.12
2017-12-25T09:20:35.910Z,11.13
2017-12-25T09:21:45.725Z,11.27
2017-12-25T09:22:55.528Z,11.2
2017-12-25T09:24:05.327Z,11.33
2017-12-25T09:25:15.389Z,11.41
2017-12-25T09:26:25.195Z,11.43
2017-12-25T09:27:35.266Z,11.53
2017-12-25T09:28:45.337Z,11.52
2017-12-25T09:29:55.129Z,11.67
2017-12-25T09:31:05.188Z,11.66
2017-12-25T09:32:15.238Z,11.7
2017-12-25T09:33:25.291Z,11.71
2017-12-25T09:34:35.352Z,11.75
2017-12-25T09:35:45.240Z,11.7
2017-12-25T09:36:55.352Z,11.79
2017-12-25T09:38:05.418Z,11.78
2017-12-25T09:39:15.463Z,11.78
2017-12-25T09:40:25.260Z,11.78
2017-12-25T09:41:35.963Z,11.84
2017-12-25T09:42:46.039Z,11.85
2017-12-25T09:43:56.095Z,11.95
2017-12-25T09:45:06.177Z,11.98
2017-12-25T09:46:16.241Z,12.04
2017-12-25T09:47:26.307Z,12.1
2017-12-25T09:48:36.407Z,12.16
2017-12-25T09:49:46.479Z,12.15
2017-12-25T09:50:56.290Z,12.23
2017-12-25T09:52:06.091Z,12.65
2017-12-25T09:53:16.158Z,14.12
2017-12-25T09:54:26.218Z,14.98
2017-12-25T09:55:36.042Z,15.44
2017-12-25T09:56:46.145Z,15.6
2017-12-25T09:57:56.212Z,15.12
2017-12-25T09:59:06.284Z,14.56
2017-12-25T10:00:16.424Z,14.2
2017-12-25T10:01:26.493Z,13.86
2017-12-25T10:02:36.574Z,13.66
2017-12-25T10:03:46.664Z,13.63
2017-12-25T10:04:56.738Z,13.53
2017-12-25T10:06:06.543Z,13.39
2017-12-25T10:07:16.599Z,13.28
2017-12-25T10:08:26.674Z,13.25
2017-12-25T10:09:36.753Z,13.28
2017-12-25T10:10:46.820Z,13.27
2017-12-25T10:11:56.889Z,13.31
2017-12-25T10:13:06.703Z,13.28
2017-12-25T10:14:16.777Z,13.32
2017-12-25T10:15:26.314Z,13.36
2017-12-25T10:16:36.365Z,13.36
2017-12-25T10:17:46.216Z,13.35
2017-12-25T10:18:56.287Z,13.35
2017-12-25T10:20:06.348Z,13.42
2017-12-25T10:21:15.901Z,13.35
2017-12-25T10:22:25.963Z,13.36
2017-12-25T10:23:35.771Z,13.29
2017-12-25T10:24:45.818Z,13.28
2017-12-25T10:25:55.617Z,13.27
2017-12-25T10:27:05.442Z,13.27
2017-12-25T10:28:16.161Z,13.27
2017-12-25T10:29:26.012Z,13.27
2017-12-25T10:30:36.057Z,13.17
2017-12-25T10:31:46.116Z,13.21
2017-12-25T10:32:56.199Z,13.16
2017-12-25T10:34:06.281Z,13.19
2017-12-25T10:35:16.401Z,13.29
2017-12-25T10:36:26.484Z,13.32
2017-12-25T10:37:36.288Z,13.29
2017-12-25T10:38:45.828Z,13.32
2017-12-25T10:39:55.376Z,13.32
2017-12-25T10:41:05.446Z,13.5
2017-12-25T10:42:15.498Z,13.47
2017-12-25T10:43:25.569Z,13.5
2017-12-25T10:44:35.628Z,13.62
2017-12-25T10:45:45.685Z,13.58
2017-12-25T10:46:55.734Z,13.63
2017-12-25T10:48:05.812Z,13.66
2017-12-25T10:49:15.618Z,13.58
2017-12-25T10:50:25.411Z,13.62
2017-12-25T10:51:35.200Z,13.62
2017-12-25T10:52:45.266Z,13.55
2017-12-25T10:53:55.089Z,13.62
2017-12-25T10:55:05.154Z,13.65
2017-12-25T10:56:15.225Z,13.58
2017-12-25T10:57:25.038Z,13.66
2017-12-25T10:58:35.136Z,13.63
2017-12-25T10:59:45.200Z,13.62
2017-12-25T11:00:54.998Z,13.68
2017-12-25T11:02:05.060Z,13.69
2017-12-25T11:03:15.136Z,13.62
2017-12-25T11:04:26.077Z,13.62
2017-12-25T11:05:36.143Z,13.66
2017-12-25T11:06:46.266Z,13.73
2017-12-25T11:07:56.069Z,13.83
2017-12-25T11:09:05.859Z,13.83
2017-12-25T11:10:15.649Z,13.93
2017-12-25T11:11:25.437Z,13.9
2017-12-25T11:12:35.250Z,13.9
2017-12-25T11:13:44.831Z,13.95
2017-12-25T11:14:54.651Z,13.95
2017-12-25T11:16:04.757Z,13.99
2017-12-25T11:17:14.840Z,13.94
2017-12-25T11:18:24.658Z,13.97
2017-12-25T11:19:34.473Z,13.97
2017-12-25T11:20:44.530Z,13.99
2017-12-25T11:21:54.135Z,14.01
2017-12-25T11:23:03.939Z,14.02
2017-12-25T11:24:14.895Z,14.12
2017-12-25T11:25:24.714Z,14.15
2017-12-25T11:26:34.506Z,14.19
2017-12-25T11:27:44.646Z,14.2
2017-12-25T11:28:54.706Z,14.08
2017-12-25T11:30:04.511Z,14.13
2017-12-25T11:31:14.294Z,14.08
2017-12-25T11:32:23.826Z,14.08
2017-12-25T11:33:33.633Z,14.11
2017-12-25T11:34:43.820Z,14.16
2017-12-25T11:35:53.624Z,14.15
2017-12-25T11:37:03.213Z,14.23
2017-12-25T11:38:13.286Z,14.19
2017-12-25T11:39:23.357Z,14.23
2017-12-25T11:40:33.155Z,14.24
2017-12-25T11:41:43.203Z,14.31
2017-12-25T11:42:53.272Z,14.27
2017-12-25T11:44:03.371Z,14.2
2017-12-25T11:45:13.225Z,14.26
2017-12-25T11:46:23.169Z,14.27
2017-12-25T11:47:32.979Z,14.28
2017-12-25T11:48:42.536Z,14.44
2017-12-25T11:49:52.068Z,14.41
2017-12-25T11:51:01.607Z,14.33
2017-12-25T11:52:11.673Z,14.34
2017-12-25T11:53:21.275Z,14.27
2017-12-25T11:54:31.130Z,14.3
2017-12-25T11:55:40.934Z,14.28
2017-12-25T11:56:50.721Z,14.28
2017-12-25T11:58:00.253Z,14.31
2017-12-25T11:59:10.060Z,14.28
2017-12-25T12:00:19.866Z,14.21
2017-12-25T12:01:29.920Z,14.23
2017-12-25T12:02:39.985Z,14.31
2017-12-25T12:03:49.520Z,14.28
2017-12-25T12:04:59.322Z,14.38
2017-12-25T12:06:08.875Z,14.39
2017-12-25T12:07:18.681Z,14.49
2017-12-25T12:08:28.492Z,14.51
2017-12-25T12:09:38.554Z,14.45
2017-12-25T12:10:48.591Z,14.53
2017-12-25T12:11:58.653Z,14.44
2017-12-25T12:13:08.460Z,14.44
2017-12-25T12:14:17.993Z,14.46
2017-12-25T12:15:27.295Z,14.41
2017-12-25T12:16:37.455Z,14.42
2017-12-25T12:17:46.736Z,14.44
2017-12-25T12:18:56.283Z,14.45
2017-12-25T12:20:06.092Z,14.42
2017-12-25T12:21:15.637Z,14.45
2017-12-25T12:22:25.433Z,14.42
2017-12-25T12:23:34.986Z,14.42
2017-12-25T12:24:44.842Z,14.45
2017-12-25T12:25:54.634Z,14.41
2017-12-25T12:27:04.695Z,14.34
2017-12-25T12:28:14.238Z,14.44
2017-12-25T12:29:23.786Z,14.42
2017-12-25T12:30:33.674Z,14.45
2017-12-25T12:31:43.805Z,14.39
2017-12-25T12:32:53.956Z,14.39
2017-12-25T12:34:03.699Z,14.52
2017-12-25T12:35:13.569Z,14.51
2017-12-25T12:36:23.675Z,14.57
2017-12-25T12:37:33.760Z,14.59
2017-12-25T12:38:43.347Z,14.63
2017-12-25T12:39:53.502Z,14.7
2017-12-25T12:41:03.585Z,14.6
2017-12-25T12:42:13.715Z,14.64
2017-12-25T12:43:25.127Z,14.63
2017-12-25T12:44:35.195Z,14.6
2017-12-25T12:45:45.402Z,14.51
2017-12-25T12:46:55.496Z,14.52
2017-12-25T12:48:17.316Z,14.46
2017-12-25T12:49:26.878Z,14.53
2017-12-25T12:50:36.705Z,14.46
2017-12-25T12:51:45.977Z,14.49
2017-12-25T12:52:55.828Z,14.51
2017-12-25T12:54:05.918Z,14.57
2017-12-25T12:55:15.746Z,14.64
2017-12-25T12:56:25.703Z,14.57
2017-12-25T12:57:35.274Z,14.63
2017-12-25T12:58:45.379Z,14.61
2017-12-25T12:59:55.038Z,14.53
2017-12-25T13:01:04.902Z,14.48
2017-12-25T13:02:14.729Z,14.48
2017-12-25T13:03:24.809Z,14.3
2017-12-25T13:04:34.922Z,14.31
2017-12-25T13:05:44.554Z,14.16
2017-12-25T13:06:54.650Z,14.11
2017-12-25T13:08:04.209Z,14.13
2017-12-25T13:09:14.365Z,13.87
2017-12-25T13:10:24.500Z,13.93
2017-12-25T13:11:33.902Z,13.75
2017-12-25T13:12:43.998Z,13.69
2017-12-25T13:13:53.614Z,13.6
2017-12-25T13:15:03.746Z,13.58
2017-12-25T13:16:13.575Z,13.62
2017-12-25T13:17:23.190Z,13.63
2017-12-25T13:18:32.271Z,13.5
2017-12-25T13:19:42.117Z,13.42
2017-12-25T13:20:52.252Z,13.45
2017-12-25T13:22:02.063Z,13.37
2017-12-25T13:23:11.866Z,13.36
2017-12-25T13:24:21.919Z,13.36
2017-12-25T13:25:32.639Z,13.25
2017-12-25T13:26:42.199Z,13.25
2017-12-25T13:27:51.787Z,13.28
2017-12-25T13:29:01.650Z,13.29
2017-12-25T13:30:11.205Z,13.24
2017-12-25T13:31:21.031Z,13.17
2017-12-25T13:32:30.856Z,13.11
2017-12-25T13:33:40.465Z,13.17
2017-12-25T13:34:50.306Z,13.02
2017-12-25T13:36:00.273Z,13.07
2017-12-25T13:37:11.310Z,13.02
2017-12-25T13:38:21.126Z,12.98
2017-12-25T13:39:32.290Z,13.02
2017-12-25T13:40:42.411Z,13.06
2017-12-25T13:41:52.259Z,13.02
2017-12-25T13:43:01.831Z,12.98
2017-12-25T13:44:11.648Z,13.07
2017-12-25T13:45:21.478Z,13.02
2017-12-25T13:46:31.651Z,12.89
2017-12-25T13:47:41.744Z,12.89
2017-12-25T13:48:51.842Z,12.91
2017-12-25T13:50:01.687Z,12.83
2017-12-25T13:51:11.555Z,12.69
2017-12-25T13:52:21.173Z,12.74
2017-12-25T13:53:31.007Z,12.59
2017-12-25T13:54:41.089Z,12.61
2017-12-25T13:55:51.233Z,12.59
2017-12-25T13:57:01.056Z,12.55
2017-12-25T13:58:10.870Z,12.52
2017-12-25T13:59:20.959Z,12.55
2017-12-25T14:00:30.766Z,12.44
2017-12-25T14:01:40.865Z,12.52
2017-12-25T14:02:51.639Z,12.45
2017-12-25T14:04:01.262Z,12.51
2017-12-25T14:05:10.540Z,12.45
2017-12-25T14:06:20.355Z,12.29
2017-12-25T14:07:30.472Z,12.25
2017-12-25T14:08:40.282Z,12.19
2017-12-25T14:09:50.152Z,12.2
2017-12-25T14:11:00.258Z,12.13
2017-12-25T14:12:10.402Z,12.05
2017-12-25T14:13:19.997Z,12.01
2017-12-25T14:14:29.800Z,11.98
2017-12-25T14:15:39.939Z,11.86
2017-12-25T14:16:49.773Z,11.84
2017-12-25T14:17:59.900Z,11.79
2017-12-25T14:19:09.975Z,11.85
2017-12-25T14:20:19.770Z,11.67
2017-12-25T14:21:29.887Z,11.67
2017-12-25T14:22:39.407Z,11.45
2017-12-25T14:23:49.240Z,11.43
2017-12-25T14:24:58.790Z,11.48
2017-12-25T14:26:08.818Z,11.35
2017-12-25T14:27:18.360Z,11.27
2017-12-25T14:28:28.414Z,11.21
2017-12-25T14:29:38.681Z,11.2
2017-12-25T14:30:48.761Z,11.13
2017-12-25T14:31:58.809Z,10.98
2017-12-25T14:33:08.663Z,11.06
2017-12-25T14:34:18.744Z,10.97
2017-12-25T14:35:29.792Z,10.8
2017-12-25T14:36:39.862Z,10.91
2017-12-25T14:37:49.399Z,10.87
2017-12-25T14:38:59.517Z,10.8
2017-12-25T14:40:09.574Z,10.83
2017-12-25T14:41:20.429Z,10.76
2017-12-25T14:42:30.509Z,10.75
2017-12-25T14:43:41.229Z,10.7
2017-12-25T14:44:51.077Z,10.69
2017-12-25T14:46:01.146Z,10.66
2017-12-25T14:47:11.222Z,10.55
2017-12-25T14:48:21.033Z,10.51
2017-12-25T14:49:31.142Z,10.49
2017-12-25T14:50:41.262Z,10.51
2017-12-25T14:51:51.077Z,10.44
2017-12-25T14:53:01.159Z,10.39
2017-12-25T14:54:11.225Z,10.39
2017-12-25T14:55:21.297Z,10.31
2017-12-25T14:56:31.430Z,10.35
2017-12-25T14:57:41.531Z,10.13
2017-12-25T14:58:51.608Z,10.13
2017-12-25T15:00:01.675Z,10.21
2017-12-25T15:01:11.496Z,10.14
2017-12-25T15:02:21.624Z,10.05
2017-12-25T15:03:31.713Z,9.96
2017-12-25T15:04:41.529Z,10.02
2017-12-25T15:05:51.594Z,9.82
2017-12-25T15:07:01.677Z,9.84
2017-12-25T15:08:11.536Z,9.89
2017-12-25T15:09:21.589Z,9.85
2017-12-25T15:10:31.653Z,9.84
2017-12-25T15:11:41.724Z,9.75
2017-12-25T15:12:51.305Z,9.8
2017-12-25T15:14:01.379Z,9.74
2017-12-25T15:15:11.459Z,9.64
2017-12-25T15:16:21.551Z,9.7
2017-12-25T15:17:31.627Z,9.63
2017-12-25T15:18:41.443Z,9.5
2017-12-25T15:19:51.573Z,9.55
2017-12-25T15:21:01.655Z,9.5
2017-12-25T15:22:12.422Z,9.44
2017-12-25T15:23:22.500Z,9.35
2017-12-25T15:24:32.294Z,9.3
2017-12-25T15:25:42.404Z,9.29
2017-12-25T15:26:52.497Z,9.26
2017-12-25T15:28:02.592Z,9.37
2017-12-25T15:29:12.437Z,9.27
2017-12-25T15:30:22.517Z,9.24
2017-12-25T15:31:32.587Z,9.26
2017-12-25T15:32:42.667Z,9.23
2017-12-25T15:33:52.740Z,9.09
2017-12-25T15:35:02.882Z,9.12
2017-12-25T15:36:12.963Z,9.16
2017-12-25T15:37:23.090Z,9.16
2017-12-25T15:38:32.881Z,9.08
2017-12-25T15:39:42.940Z,8.95
2017-12-25T15:40:53.010Z,9.03
2017-12-25T15:42:03.260Z,8.94
2017-12-25T15:43:13.127Z,8.87
2017-12-25T15:44:23.243Z,8.79
2017-12-25T15:45:33.312Z,8.8
2017-12-25T15:46:43.397Z,8.8
2017-12-25T15:47:53.460Z,8.68
2017-12-25T15:49:03.569Z,8.67
2017-12-25T15:50:13.647Z,8.54
2017-12-25T15:51:23.444Z,8.54
2017-12-25T15:52:33.274Z,8.46